createdAt,value
2023-01-01T00:01:28.070Z,204.40
2023-01-01T00:03:59.497Z,188.02
2023-01-01T00:06:28.786Z,205.35
2023-01-01T00:09:16.305Z,208.13
2023-01-01T00:11:45.365Z,209.18
2023-01-01T00:14:14.696Z,194.75
2023-01-01T00:16:44.090Z,206.65
2023-01-01T00:19:13.995Z,208.25
2023-01-01T00:21:43.588Z,207.05
2023-01-01T00:24:12.788Z,193.82
2023-01-01T00:26:41.803Z,214.98
2023-01-01T00:29:11.552Z,191.02
2023-01-01T00:31:40.832Z,190.35
2023-01-01T00:34:11.945Z,194.93
2023-01-01T00:36:41.579Z,201.38
2023-01-01T00:39:10.878Z,201.07
2023-01-01T00:41:42.504Z,206.63
2023-01-01T00:44:11.551Z,207.52
2023-01-01T00:46:41.002Z,193.82
2023-01-01T00:49:10.033Z,177.52
2023-01-01T00:51:39.602Z,198.55
2023-01-01T00:54:08.699Z,182.93
2023-01-01T00:56:37.871Z,189.70
2023-01-01T00:59:07.598Z,194.02
2023-01-01T01:01:38.526Z,179.90
2023-01-01T01:04:12.829Z,190.48
2023-01-01T01:06:46.802Z,191.20
2023-01-01T01:09:22.198Z,205.50
2023-01-01T01:12:17.990Z,213.48
2023-01-01T01:14:49.861Z,202.25
2023-01-01T01:17:19.883Z,192.57
2023-01-01T01:19:49.837Z,197.88
2023-01-01T01:22:24.230Z,208.02
2023-01-01T01:24:57.573Z,186.95
2023-01-01T01:27:26.904Z,179.77
2023-01-01T01:29:56.734Z,185.25
2023-01-01T01:32:26.363Z,192.52
2023-01-01T01:34:56.043Z,197.13
2023-01-01T01:37:25.506Z,197.77
2023-01-01T01:39:55.068Z,185.85
2023-01-01T01:42:24.560Z,189.05
2023-01-01T01:44:59.051Z,208.70
2023-01-01T01:47:40.829Z,203.82
2023-01-01T01:50:18.177Z,213.48
2023-01-01T01:52:54.631Z,220.80
2023-01-01T01:55:24.261Z,219.15
2023-01-01T01:57:54.368Z,237.98
2023-01-01T02:00:24.233Z,222.50
2023-01-01T02:03:15.229Z,218.38
2023-01-01T02:05:45.951Z,217.10
2023-01-01T02:08:16.907Z,228.13
2023-01-01T02:10:46.577Z,237.80
2023-01-01T02:13:16.137Z,234.48
2023-01-01T02:16:26.537Z,241.10
2023-01-01T02:19:07.137Z,244.35
2023-01-01T02:22:15.189Z,234.32
2023-01-01T02:24:57.690Z,255.18
2023-01-01T02:27:42.539Z,241.10
2023-01-01T02:30:13.410Z,255.00
2023-01-01T02:32:51.295Z,240.23
2023-01-01T02:35:35.430Z,257.13
2023-01-01T02:38:11.557Z,256.33
2023-01-01T02:40:46.871Z,230.60
2023-01-01T02:43:21.486Z,243.85
2023-01-01T02:45:56.493Z,226.43
2023-01-01T02:48:49.787Z,222.40
2023-01-01T02:54:06.789Z,231.57
2023-01-01T02:57:05.671Z,268.25
2023-01-01T03:00:22.669Z,250.00
2023-01-01T03:03:05.050Z,264.45
2023-01-01T03:06:00.577Z,267.92
2023-01-01T03:08:59.733Z,274.52
2023-01-01T03:11:39.100Z,263.55
2023-01-01T03:14:15.109Z,282.42
2023-01-01T03:16:55.666Z,290.38
2023-01-01T03:19:28.397Z,283.83
2023-01-01T03:22:01.228Z,299.85
2023-01-01T03:25:02.127Z,340.17
2023-01-01T03:27:49.270Z,352.38
2023-01-01T03:30:21.476Z,389.33
2023-01-01T03:33:09.280Z,390.15
2023-01-01T03:35:38.977Z,387.02
2023-01-01T03:38:22.601Z,397.20
2023-01-01T03:40:55.752Z,396.23
2023-01-01T03:43:38.165Z,393.40
2023-01-01T03:46:11.206Z,376.85
2023-01-01T03:49:04.100Z,384.92
2023-01-01T03:51:39.794Z,392.13
2023-01-01T03:54:42.738Z,386.08
2023-01-01T03:57:21.633Z,377.27
2023-01-01T04:00:07.268Z,388.35
2023-01-01T04:03:06.629Z,363.75
2023-01-01T04:05:42.603Z,333.77
2023-01-01T04:08:15.414Z,335.35
2023-01-01T04:10:52.919Z,324.50
2023-01-01T04:13:22.824Z,326.42
2023-01-01T04:15:52.478Z,311.40
2023-01-01T04:18:22.271Z,366.20
2023-01-01T04:20:51.509Z,359.45
2023-01-01T04:23:20.655Z,369.83
2023-01-01T04:25:50.704Z,374.35
2023-01-01T04:28:20.616Z,388.83
2023-01-01T04:30:50.093Z,370.02
2023-01-01T04:33:19.497Z,345.10
2023-01-01T04:35:48.809Z,357.33
2023-01-01T04:38:18.270Z,345.67
2023-01-01T04:40:48.447Z,333.33
2023-01-01T04:43:18.221Z,321.92
2023-01-01T04:45:57.708Z,292.25
2023-01-01T04:48:27.695Z,308.55
2023-01-01T04:51:05.841Z,310.15
2023-01-01T04:53:36.987Z,324.25
2023-01-01T04:56:07.325Z,298.42
2023-01-01T04:58:38.406Z,324.73
2023-01-01T05:01:08.809Z,267.90
2023-01-01T05:03:39.295Z,296.40
2023-01-01T05:06:11.077Z,289.55
2023-01-01T05:08:42.424Z,278.93
2023-01-01T05:11:13.569Z,273.73
2023-01-01T05:13:45.916Z,286.40
2023-01-01T05:16:18.080Z,295.00
2023-01-01T05:18:47.877Z,263.42
2023-01-01T05:21:19.491Z,275.40
2023-01-01T05:23:49.849Z,257.17
2023-01-01T05:26:21.933Z,245.38
2023-01-01T05:28:52.623Z,272.27
2023-01-01T05:31:28.555Z,280.15
2023-01-01T05:36:33.273Z,267.33
2023-01-01T05:39:02.806Z,271.15
2023-01-01T05:41:32.952Z,276.20
2023-01-01T05:44:04.194Z,258.50
2023-01-01T05:46:34.280Z,288.88
2023-01-01T05:49:04.057Z,258.83
2023-01-01T05:54:03.871Z,249.48
2023-01-01T05:56:33.504Z,256.92
2023-01-01T05:59:03.829Z,268.13
2023-01-01T06:01:34.044Z,271.23
2023-01-01T06:04:03.363Z,276.02
2023-01-01T06:06:36.485Z,267.75
2023-01-01T06:09:06.758Z,264.50
2023-01-01T06:11:36.717Z,242.90
2023-01-01T06:14:05.859Z,242.00
2023-01-01T06:16:36.187Z,186.40
2023-01-01T06:19:06.029Z,241.93
2023-01-01T06:21:35.528Z,217.85
2023-01-01T06:24:05.033Z,260.48
2023-01-01T06:26:34.875Z,277.20
2023-01-01T06:29:04.867Z,275.35
2023-01-01T06:31:40.394Z,301.20
2023-01-01T06:34:11.217Z,292.52
2023-01-01T06:36:40.796Z,259.05
2023-01-01T06:39:10.130Z,245.20
2023-01-01T06:41:39.982Z,231.98
2023-01-01T06:44:09.501Z,224.13
2023-01-01T06:46:38.852Z,200.43
2023-01-01T06:49:13.268Z,157.45
2023-01-01T06:51:44.782Z,124.95
2023-01-01T06:54:14.607Z,106.57
2023-01-01T06:56:43.832Z,105.32
2023-01-01T06:59:13.088Z,113.32
2023-01-01T07:01:44.021Z,121.63
2023-01-01T07:04:16.522Z,114.10
2023-01-01T07:06:46.098Z,109.13
2023-01-01T07:09:15.096Z,121.70
2023-01-01T07:11:44.177Z,107.35
2023-01-01T07:14:13.603Z,111.68
2023-01-01T07:16:43.583Z,117.03
2023-01-01T07:19:13.682Z,127.57
2023-01-01T07:21:48.114Z,114.88
2023-01-01T07:24:18.030Z,120.32
2023-01-01T07:26:47.776Z,120.53
2023-01-01T07:29:17.105Z,108.18
2023-01-01T07:31:47.174Z,92.90
2023-01-01T07:34:23.825Z,93.82
2023-01-01T07:36:53.220Z,101.43
2023-01-01T07:39:22.236Z,104.38
2023-01-01T07:41:51.465Z,105.85
2023-01-01T07:44:20.743Z,125.10
2023-01-01T07:46:50.132Z,116.32
2023-01-01T07:49:19.148Z,112.25
2023-01-01T07:51:48.414Z,117.05
2023-01-01T07:54:17.741Z,126.82
2023-01-01T07:56:46.580Z,117.10
2023-01-01T07:59:20.321Z,108.97
2023-01-01T08:01:50.275Z,114.60
2023-01-01T08:04:19.815Z,111.57
2023-01-01T08:06:48.999Z,98.78
2023-01-01T08:09:18.563Z,95.03
2023-01-01T08:11:48.062Z,88.32
2023-01-01T08:14:17.954Z,114.78
2023-01-01T08:16:47.267Z,112.35
2023-01-01T08:19:16.552Z,121.35
2023-01-01T08:21:45.982Z,106.18
2023-01-01T08:24:15.161Z,109.03
2023-01-01T08:26:44.551Z,106.70
2023-01-01T08:29:13.743Z,103.13
2023-01-01T08:31:43.473Z,106.05
2023-01-01T08:34:13.000Z,101.68
2023-01-01T08:36:42.360Z,106.22
2023-01-01T08:39:12.761Z,103.28
2023-01-01T08:41:42.231Z,104.88
2023-01-01T08:44:11.570Z,126.97
2023-01-01T08:46:41.080Z,124.05
2023-01-01T08:49:10.758Z,121.97
2023-01-01T08:51:40.495Z,123.07
2023-01-01T08:54:09.753Z,106.00
2023-01-01T08:56:39.519Z,107.72
2023-01-01T08:59:08.636Z,112.38
2023-01-01T09:01:37.949Z,119.57
2023-01-01T09:04:15.192Z,106.85
2023-01-01T09:06:44.893Z,126.97
2023-01-01T09:09:14.730Z,116.43
2023-01-01T09:12:02.861Z,125.47
2023-01-01T09:14:33.120Z,128.45
2023-01-01T09:17:03.080Z,143.32
2023-01-01T09:19:32.303Z,123.60
2023-01-01T09:22:01.268Z,110.28
2023-01-01T09:24:30.863Z,130.52
2023-01-01T09:27:00.042Z,124.43
2023-01-01T09:29:29.571Z,141.35
2023-01-01T09:31:58.571Z,121.00
2023-01-01T09:34:27.866Z,125.85
2023-01-01T09:36:57.192Z,133.90
2023-01-01T09:39:26.704Z,163.45
2023-01-01T09:42:23.089Z,145.93
2023-01-01T09:45:22.285Z,147.25
2023-01-01T09:48:07.705Z,143.38
2023-01-01T09:50:48.028Z,142.35
2023-01-01T09:53:42.808Z,144.52
2023-01-01T09:56:28.567Z,139.13
2023-01-01T09:59:00.435Z,144.02
2023-01-01T10:01:45.196Z,148.18
2023-01-01T10:04:24.143Z,159.98
2023-01-01T10:06:58.802Z,166.68
2023-01-01T10:09:34.665Z,181.88
2023-01-01T10:12:23.823Z,173.18
2023-01-01T10:15:01.046Z,155.75
2023-01-01T10:17:45.532Z,166.40
2023-01-01T10:20:31.650Z,161.57
2023-01-01T10:23:16.566Z,162.43
2023-01-01T10:25:46.527Z,176.95
2023-01-01T10:28:36.418Z,180.85
2023-01-01T10:31:29.321Z,178.48
2023-01-01T10:36:29.149Z,154.88
2023-01-01T10:38:58.304Z,155.18
2023-01-01T10:41:27.695Z,150.32
2023-01-01T10:43:57.538Z,152.38
2023-01-01T10:46:31.814Z,156.27
2023-01-01T10:49:13.344Z,138.65
2023-01-01T10:51:49.619Z,152.95
2023-01-01T10:54:35.205Z,126.63
2023-01-01T10:57:18.791Z,102.90
2023-01-01T10:59:54.283Z,80.40
2023-01-01T11:02:29.062Z,69.93
2023-01-01T11:05:22.312Z,64.13
2023-01-01T11:07:52.095Z,59.63
2023-01-01T11:10:27.037Z,58.08
2023-01-01T11:13:05.529Z,49.67
2023-01-01T11:15:43.405Z,51.78
2023-01-01T11:18:23.935Z,54.50
2023-01-01T11:21:00.698Z,46.53
2023-01-01T11:23:37.101Z,48.30
2023-01-01T11:26:12.386Z,56.13
2023-01-01T11:28:42.880Z,48.67
2023-01-01T11:31:21.486Z,58.55
2023-01-01T11:33:54.137Z,50.60
2023-01-01T11:36:36.154Z,48.92
2023-01-01T11:39:29.697Z,54.90
2023-01-01T11:42:00.162Z,51.28
2023-01-01T11:44:49.687Z,54.90
2023-01-01T11:47:33.028Z,70.00
2023-01-01T11:50:31.037Z,97.28
2023-01-01T11:53:23.403Z,62.28
2023-01-01T11:56:09.453Z,128.13
2023-01-01T11:58:38.501Z,107.18
2023-01-01T12:01:19.748Z,116.63
2023-01-01T12:04:19.983Z,104.50
2023-01-01T12:07:04.253Z,107.70
2023-01-01T12:09:46.250Z,106.95
2023-01-01T12:12:41.341Z,126.23
2023-01-01T12:15:20.011Z,110.35
2023-01-01T12:18:08.314Z,127.25
2023-01-01T12:20:44.142Z,102.10
2023-01-01T12:23:18.449Z,100.05
2023-01-01T12:26:04.262Z,109.75
2023-01-01T12:28:43.106Z,108.55
2023-01-01T12:31:18.272Z,114.85
2023-01-01T12:34:03.424Z,115.22
2023-01-01T12:36:38.792Z,105.60
2023-01-01T12:39:29.763Z,108.43
2023-01-01T12:42:07.228Z,116.45
2023-01-01T12:45:13.303Z,134.68
2023-01-01T12:47:51.556Z,140.93
2023-01-01T12:50:34.393Z,120.40
2023-01-01T12:53:22.159Z,133.15
2023-01-01T12:56:20.718Z,158.68
2023-01-01T12:59:14.476Z,146.32
2023-01-01T13:01:44.583Z,129.80
2023-01-01T13:04:18.687Z,160.45
2023-01-01T13:06:54.235Z,132.77
2023-01-01T13:09:29.064Z,147.60
2023-01-01T13:12:02.903Z,146.13
2023-01-01T13:14:38.459Z,152.32
2023-01-01T13:17:25.859Z,135.48
2023-01-01T13:20:01.036Z,146.20
2023-01-01T13:22:39.901Z,168.68
2023-01-01T13:25:12.343Z,143.35
2023-01-01T13:28:05.832Z,149.38
2023-01-01T13:30:42.496Z,151.15
2023-01-01T13:33:33.442Z,153.63
2023-01-01T13:36:14.182Z,150.40
2023-01-01T13:38:58.214Z,171.80
2023-01-01T13:41:44.999Z,170.90
2023-01-01T13:44:20.852Z,166.35
2023-01-01T13:47:17.692Z,155.38
2023-01-01T13:50:05.893Z,159.40
2023-01-01T13:52:59.788Z,147.65
2023-01-01T13:55:52.174Z,156.07
2023-01-01T13:58:42.278Z,162.60
2023-01-01T14:01:15.951Z,163.63
2023-01-01T14:03:49.820Z,166.43
2023-01-01T14:06:43.076Z,154.27
2023-01-01T14:09:18.280Z,155.30
2023-01-01T14:11:47.705Z,156.80
2023-01-01T14:14:25.104Z,178.10
2023-01-01T14:16:58.669Z,155.60
2023-01-01T14:19:29.985Z,163.27
2023-01-01T14:21:59.807Z,163.48
2023-01-01T14:24:29.768Z,170.63
2023-01-01T14:27:00.365Z,187.85
2023-01-01T14:29:33.213Z,167.55
2023-01-01T14:32:13.646Z,175.00
2023-01-01T14:34:44.534Z,179.40
2023-01-01T14:37:26.982Z,174.68
2023-01-01T14:40:09.655Z,179.48
2023-01-01T14:42:39.474Z,175.13
2023-01-01T14:45:19.788Z,194.85
2023-01-01T14:47:53.023Z,182.68
2023-01-01T14:50:33.071Z,177.82
2023-01-01T14:53:13.745Z,195.43
2023-01-01T14:55:45.611Z,193.60
2023-01-01T14:58:19.755Z,206.18
2023-01-01T15:00:49.168Z,180.00
2023-01-01T15:03:23.173Z,193.13
2023-01-01T15:06:04.036Z,190.25
2023-01-01T15:08:33.779Z,185.38
2023-01-01T15:11:05.553Z,204.73
2023-01-01T15:13:34.948Z,186.63
2023-01-01T15:16:20.591Z,194.30
2023-01-01T15:18:52.124Z,194.40
2023-01-01T15:21:33.800Z,194.80
2023-01-01T15:24:04.543Z,203.45
2023-01-01T15:26:59.506Z,204.57
2023-01-01T15:29:41.150Z,202.70
2023-01-01T15:32:15.040Z,219.88
2023-01-01T15:34:51.816Z,215.77
2023-01-01T15:37:24.848Z,212.05
2023-01-01T15:39:58.945Z,238.07
2023-01-01T15:42:35.892Z,224.70
2023-01-01T15:45:24.722Z,257.17
2023-01-01T15:47:59.512Z,228.60
2023-01-01T15:50:36.211Z,243.82
2023-01-01T15:53:24.107Z,231.98
2023-01-01T15:56:11.782Z,252.68
2023-01-01T15:59:03.719Z,253.65
2023-01-01T16:01:40.582Z,258.38
2023-01-01T16:04:28.765Z,256.05
2023-01-01T16:07:00.300Z,268.25
2023-01-01T16:09:30.187Z,261.55
2023-01-01T16:12:00.720Z,267.13
2023-01-01T16:14:30.529Z,267.98
2023-01-01T16:17:01.800Z,267.33
2023-01-01T16:19:33.187Z,261.10
2023-01-01T16:22:02.855Z,268.27
2023-01-01T16:24:35.596Z,286.00
2023-01-01T16:27:05.485Z,287.40
2023-01-01T16:29:34.488Z,288.45
2023-01-01T16:32:04.221Z,288.98
2023-01-01T16:34:34.104Z,291.48
2023-01-01T16:37:03.155Z,278.83
2023-01-01T16:39:32.460Z,293.80
2023-01-01T16:42:01.773Z,306.85
2023-01-01T16:44:30.810Z,302.75
2023-01-01T16:46:59.979Z,317.75
2023-01-01T16:49:29.285Z,290.85
2023-01-01T16:51:58.503Z,299.52
2023-01-01T16:54:28.089Z,299.05
2023-01-01T16:56:59.609Z,326.75
2023-01-01T16:59:29.167Z,345.58
2023-01-01T17:02:00.349Z,304.35
2023-01-01T17:04:40.928Z,323.77
2023-01-01T17:07:10.997Z,320.30
2023-01-01T17:09:43.132Z,319.13
2023-01-01T17:12:12.640Z,343.65
2023-01-01T17:14:42.197Z,327.35
2023-01-01T17:17:12.773Z,342.17
2023-01-01T17:19:41.729Z,351.15
2023-01-01T17:22:11.383Z,340.02
2023-01-01T17:24:40.799Z,335.73
2023-01-01T17:27:11.401Z,356.80
2023-01-01T17:29:40.965Z,362.25
2023-01-01T17:32:10.784Z,380.23
2023-01-01T17:34:40.673Z,366.90
2023-01-01T17:37:09.856Z,379.10
2023-01-01T17:39:39.291Z,364.10
2023-01-01T17:42:09.765Z,366.40
2023-01-01T17:44:39.827Z,368.70
2023-01-01T17:47:09.932Z,359.70
2023-01-01T17:49:39.267Z,394.92
2023-01-01T17:52:08.756Z,370.42
2023-01-01T17:54:38.068Z,352.63
2023-01-01T17:57:07.801Z,367.73
2023-01-01T17:59:37.159Z,395.02
2023-01-01T18:02:06.893Z,366.67
2023-01-01T18:04:36.537Z,385.98
2023-01-01T18:07:06.576Z,387.23
2023-01-01T18:09:39.161Z,366.85
2023-01-01T18:12:08.725Z,387.15
2023-01-01T18:14:38.477Z,396.40
2023-01-01T18:17:07.917Z,372.80
2023-01-01T18:19:39.803Z,382.65
2023-01-01T18:22:09.616Z,379.77
2023-01-01T18:24:38.514Z,401.13
2023-01-01T18:27:09.353Z,408.40
2023-01-01T18:29:38.477Z,415.17
2023-01-01T18:32:07.600Z,413.77
2023-01-01T18:34:36.676Z,401.65
2023-01-01T18:37:06.023Z,386.60
2023-01-01T18:39:36.164Z,391.17
2023-01-01T18:42:14.361Z,389.83
2023-01-01T18:44:44.462Z,378.45
2023-01-01T18:47:17.108Z,393.15
2023-01-01T18:49:53.251Z,363.95
2023-01-01T18:52:26.643Z,370.15
2023-01-01T18:55:15.753Z,356.27
2023-01-01T18:57:50.438Z,381.17
2023-01-01T19:00:26.843Z,397.90
2023-01-01T19:03:12.846Z,363.60
2023-01-01T19:05:42.409Z,386.48
2023-01-01T19:08:13.330Z,422.02
2023-01-01T19:10:58.638Z,413.55
2023-01-01T19:13:41.197Z,410.17
2023-01-01T19:16:13.140Z,439.63
2023-01-01T19:18:46.951Z,409.83
2023-01-01T19:21:24.833Z,419.02
2023-01-01T19:23:56.713Z,411.15
2023-01-01T19:26:30.384Z,418.30
2023-01-01T19:29:06.699Z,388.95
2023-01-01T19:31:36.048Z,431.10
2023-01-01T19:34:05.798Z,416.55
2023-01-01T19:36:34.893Z,394.88
2023-01-01T19:39:04.178Z,380.00
2023-01-01T19:41:33.467Z,387.02
2023-01-01T19:44:02.598Z,379.58
2023-01-01T19:46:32.815Z,403.60
2023-01-01T19:49:02.136Z,410.90
2023-01-01T19:51:31.570Z,423.80
2023-01-01T19:54:00.777Z,420.77
2023-01-01T19:56:29.991Z,418.48
2023-01-01T19:58:59.346Z,408.20
2023-01-01T20:01:28.516Z,406.60
2023-01-01T20:04:00.607Z,403.38
2023-01-01T20:06:31.479Z,407.63
2023-01-01T20:09:01.119Z,401.10
2023-01-01T20:11:32.928Z,436.77
2023-01-01T20:14:02.267Z,415.93
2023-01-01T20:16:31.445Z,414.63
2023-01-01T20:19:00.802Z,390.27
2023-01-01T20:21:48.347Z,459.70
2023-01-01T20:24:18.674Z,418.55
2023-01-01T20:26:48.080Z,427.60
2023-01-01T20:29:23.521Z,393.48
2023-01-01T20:31:54.594Z,348.77
2023-01-01T20:34:24.340Z,367.13
2023-01-01T20:37:11.766Z,338.88
2023-01-01T20:39:41.491Z,337.23
2023-01-01T20:42:10.557Z,340.27
2023-01-01T20:44:43.761Z,313.23
2023-01-01T20:47:14.180Z,321.55
2023-01-01T20:49:44.217Z,314.85
2023-01-01T20:52:13.666Z,332.77
2023-01-01T20:54:43.017Z,312.08
2023-01-01T20:57:12.413Z,323.65
2023-01-01T20:59:42.048Z,338.88
2023-01-01T21:02:13.190Z,350.63
2023-01-01T21:04:42.822Z,348.42
2023-01-01T21:07:13.511Z,327.60
2023-01-01T21:09:44.080Z,312.60
2023-01-01T21:12:13.391Z,330.80
2023-01-01T21:14:43.474Z,348.92
2023-01-01T21:17:22.371Z,335.65
2023-01-01T21:19:55.546Z,306.08
2023-01-01T21:22:25.452Z,328.55
2023-01-01T21:25:05.366Z,338.38
2023-01-01T21:27:44.143Z,354.67
2023-01-01T21:30:14.463Z,330.50
2023-01-01T21:32:48.756Z,347.15
2023-01-01T21:35:21.909Z,326.13
2023-01-01T21:37:54.874Z,329.23
2023-01-01T21:40:24.236Z,340.30
2023-01-01T21:42:59.580Z,320.70
2023-01-01T21:45:38.385Z,308.73
2023-01-01T21:48:32.707Z,319.45
2023-01-01T21:51:03.406Z,302.23
2023-01-01T21:53:35.955Z,302.92
2023-01-01T21:56:33.902Z,322.05
2023-01-01T21:59:28.677Z,295.67
2023-01-01T22:02:04.920Z,296.27
2023-01-01T22:04:47.239Z,318.08
2023-01-01T22:10:16.518Z,298.23
2023-01-01T22:12:47.311Z,293.92
2023-01-01T22:15:30.898Z,284.75
2023-01-01T22:18:09.299Z,282.02
2023-01-01T22:20:40.544Z,288.85
2023-01-01T22:23:35.553Z,327.77
2023-01-01T22:26:15.450Z,317.50
2023-01-01T22:28:47.409Z,277.40
2023-01-01T22:31:29.628Z,261.42
2023-01-01T22:34:03.244Z,255.07
2023-01-01T22:36:36.219Z,241.55
2023-01-01T22:39:15.163Z,238.57
2023-01-01T22:41:50.642Z,241.40
2023-01-01T22:44:20.665Z,246.50
2023-01-01T22:46:50.305Z,240.60
2023-01-01T22:49:33.945Z,249.77
2023-01-01T22:52:05.347Z,268.38
2023-01-01T22:54:34.683Z,263.58
2023-01-01T22:57:04.063Z,274.63
2023-01-01T22:59:33.659Z,279.13
2023-01-01T23:02:04.169Z,251.82
2023-01-01T23:04:33.697Z,271.23
2023-01-01T23:07:05.403Z,255.23
2023-01-01T23:09:34.856Z,256.88
2023-01-01T23:12:04.463Z,259.80
2023-01-01T23:14:52.402Z,252.20
2023-01-01T23:17:21.884Z,243.93
2023-01-01T23:19:51.331Z,233.70
2023-01-01T23:22:21.969Z,234.93
2023-01-01T23:24:51.450Z,237.40
2023-01-01T23:27:21.102Z,236.48
2023-01-01T23:29:52.920Z,240.93
2023-01-01T23:32:22.538Z,245.98
2023-01-01T23:34:52.093Z,248.95
2023-01-01T23:37:21.594Z,257.08
2023-01-01T23:39:50.949Z,236.10
2023-01-01T23:42:20.287Z,240.77
2023-01-01T23:44:49.459Z,236.57
2023-01-01T23:47:19.223Z,262.33
2023-01-01T23:50:07.707Z,322.40
2023-01-01T23:52:37.254Z,441.55
2023-01-01T23:55:07.067Z,618.45
2023-01-01T23:57:36.342Z,639.75
